sensor_id;sensor_type;location;lat;lon;timestamp;P1;durP1;ratioP1;P2;durP2;ratioP2
19869;SDS011;10097;50.862;4.696;2023-02-24T00:00:56;22.97;;;4.47;;
19869;SDS011;10097;50.862;4.696;2023-02-24T00:03:25;20.10;;;4.80;;
19869;SDS011;10097;50.862;4.696;2023-02-24T00:05:51;20.93;;;4.03;;
19869;SDS011;10097;50.862;4.696;2023-02-24T00:08:17;18.50;;;4.10;;
19869;SDS011;10097;50.862;4.696;2023-02-24T00:10:42;21.30;;;4.13;;
19869;SDS011;10097;50.862;4.696;2023-02-24T00:13:08;24.90;;;4.13;;
19869;SDS011;10097;50.862;4.696;2023-02-24T00:15:36;18.57;;;4.37;;
19869;SDS011;10097;50.862;4.696;2023-02-24T00:18:01;21.80;;;4.90;;
19869;SDS011;10097;50.862;4.696;2023-02-24T00:20:31;25.27;;;4.20;;
19869;SDS011;10097;50.862;4.696;2023-02-24T00:22:57;20.23;;;4.37;;
19869;SDS011;10097;50.862;4.696;2023-02-24T00:25:24;22.47;;;3.97;;
19869;SDS011;10097;50.862;4.696;2023-02-24T00:27:51;26.17;;;3.83;;
19869;SDS011;10097;50.862;4.696;2023-02-24T00:30:19;29.07;;;4.50;;
19869;SDS011;10097;50.862;4.696;2023-02-24T00:32:47;27.23;;;3.77;;
19869;SDS011;10097;50.862;4.696;2023-02-24T00:35:13;23.90;;;3.80;;
19869;SDS011;10097;50.862;4.696;2023-02-24T00:37:39;24.77;;;3.93;;
19869;SDS011;10097;50.862;4.696;2023-02-24T00:40:05;31.93;;;6.00;;
19869;SDS011;10097;50.862;4.696;2023-02-24T00:42:35;30.10;;;5.97;;
19869;SDS011;10097;50.862;4.696;2023-02-24T00:45:01;28.37;;;4.17;;
19869;SDS011;10097;50.862;4.696;2023-02-24T00:47:35;24.13;;;3.73;;
19869;SDS011;10097;50.862;4.696;2023-02-24T00:50:03;27.80;;;3.70;;
19869;SDS011;10097;50.862;4.696;2023-02-24T00:52:29;24.53;;;4.30;;
19869;SDS011;10097;50.862;4.696;2023-02-24T00:54:55;18.53;;;4.10;;
19869;SDS011;10097;50.862;4.696;2023-02-24T00:57:22;23.27;;;4.00;;
19869;SDS011;10097;50.862;4.696;2023-02-24T00:59:48;23.07;;;3.77;;
19869;SDS011;10097;50.862;4.696;2023-02-24T01:02:15;20.37;;;3.53;;
19869;SDS011;10097;50.862;4.696;2023-02-24T01:04:41;21.77;;;3.70;;
19869;SDS011;10097;50.862;4.696;2023-02-24T01:07:08;26.50;;;4.53;;
19869;SDS011;10097;50.862;4.696;2023-02-24T01:09:35;21.30;;;3.20;;
19869;SDS011;10097;50.862;4.696;2023-02-24T01:12:02;19.47;;;3.90;;
19869;SDS011;10097;50.862;4.696;2023-02-24T01:14:47;24.07;;;3.77;;
19869;SDS011;10097;50.862;4.696;2023-02-24T01:17:15;23.77;;;5.40;;
19869;SDS011;10097;50.862;4.696;2023-02-24T01:19:42;26.87;;;3.83;;
19869;SDS011;10097;50.862;4.696;2023-02-24T01:22:10;23.63;;;4.67;;
19869;SDS011;10097;50.862;4.696;2023-02-24T01:24:39;25.53;;;3.83;;
19869;SDS011;10097;50.862;4.696;2023-02-24T01:27:06;28.60;;;3.80;;
19869;SDS011;10097;50.862;4.696;2023-02-24T01:29:34;19.10;;;3.67;;
19869;SDS011;10097;50.862;4.696;2023-02-24T01:32:03;20.47;;;3.60;;
19869;SDS011;10097;50.862;4.696;2023-02-24T01:34:30;28.43;;;4.60;;
19869;SDS011;10097;50.862;4.696;2023-02-24T01:36:56;28.97;;;4.23;;
19869;SDS011;10097;50.862;4.696;2023-02-24T01:39:22;25.87;;;4.20;;
19869;SDS011;10097;50.862;4.696;2023-02-24T01:41:49;24.63;;;3.93;;
19869;SDS011;10097;50.862;4.696;2023-02-24T01:46:46;20.53;;;3.30;;
19869;SDS011;10097;50.862;4.696;2023-02-24T01:49:21;27.47;;;3.83;;
19869;SDS011;10097;50.862;4.696;2023-02-24T01:51:58;24.77;;;4.07;;
19869;SDS011;10097;50.862;4.696;2023-02-24T01:54:27;30.83;;;5.07;;
19869;SDS011;10097;50.862;4.696;2023-02-24T01:56:57;29.17;;;4.20;;
19869;SDS011;10097;50.862;4.696;2023-02-24T01:59:24;22.07;;;4.23;;
19869;SDS011;10097;50.862;4.696;2023-02-24T02:01:54;28.80;;;3.97;;
19869;SDS011;10097;50.862;4.696;2023-02-24T02:04:28;19.97;;;3.57;;
19869;SDS011;10097;50.862;4.696;2023-02-24T02:07:00;24.87;;;4.33;;
19869;SDS011;10097;50.862;4.696;2023-02-24T02:09:27;31.43;;;4.63;;
19869;SDS011;10097;50.862;4.696;2023-02-24T02:11:53;27.77;;;5.10;;
19869;SDS011;10097;50.862;4.696;2023-02-24T02:14:20;33.90;;;4.73;;
19869;SDS011;10097;50.862;4.696;2023-02-24T02:22:54;21.40;;;3.90;;
19869;SDS011;10097;50.862;4.696;2023-02-24T02:34:39;25.80;;;4.20;;
19869;SDS011;10097;50.862;4.696;2023-02-24T02:37:19;28.03;;;4.03;;
19869;SDS011;10097;50.862;4.696;2023-02-24T02:40:11;17.50;;;4.03;;
19869;SDS011;10097;50.862;4.696;2023-02-24T02:42:46;26.90;;;4.20;;
19869;SDS011;10097;50.862;4.696;2023-02-24T02:45:23;19.70;;;3.20;;
19869;SDS011;10097;50.862;4.696;2023-02-24T02:48:02;19.97;;;3.80;;
19869;SDS011;10097;50.862;4.696;2023-02-24T02:56:16;27.77;;;4.00;;
19869;SDS011;10097;50.862;4.696;2023-02-24T02:58:45;23.77;;;4.17;;
19869;SDS011;10097;50.862;4.696;2023-02-24T03:01:17;19.43;;;3.13;;
19869;SDS011;10097;50.862;4.696;2023-02-24T03:03:46;17.33;;;3.40;;
19869;SDS011;10097;50.862;4.696;2023-02-24T03:06:18;16.90;;;3.47;;
19869;SDS011;10097;50.862;4.696;2023-02-24T03:08:56;21.67;;;4.73;;
19869;SDS011;10097;50.862;4.696;2023-02-24T03:11:46;19.90;;;4.10;;
19869;SDS011;10097;50.862;4.696;2023-02-24T03:14:18;19.53;;;3.23;;
19869;SDS011;10097;50.862;4.696;2023-02-24T03:16:50;20.83;;;3.20;;
19869;SDS011;10097;50.862;4.696;2023-02-24T03:19:19;18.77;;;3.30;;
19869;SDS011;10097;50.862;4.696;2023-02-24T03:22:09;27.43;;;5.40;;
19869;SDS011;10097;50.862;4.696;2023-02-24T03:24:45;21.53;;;3.20;;
19869;SDS011;10097;50.862;4.696;2023-02-24T03:27:16;23.97;;;3.70;;
19869;SDS011;10097;50.862;4.696;2023-02-24T03:32:28;23.07;;;4.13;;
19869;SDS011;10097;50.862;4.696;2023-02-24T03:35:23;21.33;;;3.33;;
19869;SDS011;10097;50.862;4.696;2023-02-24T03:37:52;22.03;;;4.50;;
19869;SDS011;10097;50.862;4.696;2023-02-24T03:40:19;22.60;;;3.60;;
19869;SDS011;10097;50.862;4.696;2023-02-24T03:42:47;18.80;;;3.20;;
19869;SDS011;10097;50.862;4.696;2023-02-24T03:45:16;16.50;;;3.60;;
19869;SDS011;10097;50.862;4.696;2023-02-24T03:47:43;23.67;;;3.20;;
19869;SDS011;10097;50.862;4.696;2023-02-24T03:50:16;15.60;;;4.20;;
19869;SDS011;10097;50.862;4.696;2023-02-24T03:55:35;21.47;;;3.70;;
19869;SDS011;10097;50.862;4.696;2023-02-24T03:58:37;20.97;;;3.50;;
19869;SDS011;10097;50.862;4.696;2023-02-24T04:01:18;15.23;;;2.57;;
19869;SDS011;10097;50.862;4.696;2023-02-24T04:12:28;16.60;;;2.83;;
19869;SDS011;10097;50.862;4.696;2023-02-24T04:15:04;22.70;;;3.43;;
19869;SDS011;10097;50.862;4.696;2023-02-24T04:17:44;24.67;;;4.50;;
19869;SDS011;10097;50.862;4.696;2023-02-24T04:20:15;32.63;;;5.63;;
19869;SDS011;10097;50.862;4.696;2023-02-24T04:22:45;15.60;;;3.43;;
19869;SDS011;10097;50.862;4.696;2023-02-24T04:25:15;21.87;;;2.80;;
19869;SDS011;10097;50.862;4.696;2023-02-24T04:27:43;19.30;;;3.40;;
19869;SDS011;10097;50.862;4.696;2023-02-24T04:30:11;20.77;;;3.03;;
19869;SDS011;10097;50.862;4.696;2023-02-24T04:32:38;18.83;;;2.97;;
19869;SDS011;10097;50.862;4.696;2023-02-24T04:35:07;18.27;;;2.73;;
19869;SDS011;10097;50.862;4.696;2023-02-24T04:37:37;11.30;;;2.27;;
19869;SDS011;10097;50.862;4.696;2023-02-24T04:40:09;21.60;;;3.30;;
19869;SDS011;10097;50.862;4.696;2023-02-24T04:42:41;16.97;;;2.93;;
19869;SDS011;10097;50.862;4.696;2023-02-24T04:45:11;21.53;;;2.70;;
19869;SDS011;10097;50.862;4.696;2023-02-24T04:47:40;18.67;;;3.20;;
19869;SDS011;10097;50.862;4.696;2023-02-24T04:50:07;17.20;;;3.23;;
19869;SDS011;10097;50.862;4.696;2023-02-24T04:52:36;14.37;;;2.63;;
19869;SDS011;10097;50.862;4.696;2023-02-24T04:55:03;16.60;;;2.77;;
19869;SDS011;10097;50.862;4.696;2023-02-24T04:57:34;21.13;;;2.87;;
19869;SDS011;10097;50.862;4.696;2023-02-24T05:00:02;16.20;;;3.23;;
19869;SDS011;10097;50.862;4.696;2023-02-24T05:02:37;22.37;;;2.50;;
19869;SDS011;10097;50.862;4.696;2023-02-24T05:05:03;20.47;;;3.27;;
19869;SDS011;10097;50.862;4.696;2023-02-24T05:07:32;12.80;;;2.47;;
19869;SDS011;10097;50.862;4.696;2023-02-24T05:09:57;14.63;;;2.77;;
19869;SDS011;10097;50.862;4.696;2023-02-24T05:12:23;15.57;;;2.40;;
19869;SDS011;10097;50.862;4.696;2023-02-24T05:14:49;19.53;;;3.00;;
19869;SDS011;10097;50.862;4.696;2023-02-24T05:17:15;16.57;;;2.70;;
19869;SDS011;10097;50.862;4.696;2023-02-24T05:19:42;18.17;;;2.50;;
19869;SDS011;10097;50.862;4.696;2023-02-24T05:22:26;17.97;;;2.90;;
19869;SDS011;10097;50.862;4.696;2023-02-24T05:24:53;17.70;;;2.90;;
19869;SDS011;10097;50.862;4.696;2023-02-24T05:27:21;21.87;;;3.23;;
19869;SDS011;10097;50.862;4.696;2023-02-24T05:29:47;18.93;;;2.90;;
19869;SDS011;10097;50.862;4.696;2023-02-24T05:32:12;13.17;;;2.27;;
19869;SDS011;10097;50.862;4.696;2023-02-24T05:34:40;11.93;;;2.27;;
19869;SDS011;10097;50.862;4.696;2023-02-24T05:37:06;26.87;;;3.17;;
19869;SDS011;10097;50.862;4.696;2023-02-24T05:39:34;18.10;;;2.80;;
19869;SDS011;10097;50.862;4.696;2023-02-24T05:42:01;15.27;;;2.87;;
19869;SDS011;10097;50.862;4.696;2023-02-24T05:44:30;18.77;;;3.00;;
19869;SDS011;10097;50.862;4.696;2023-02-24T05:46:57;17.03;;;2.83;;
19869;SDS011;10097;50.862;4.696;2023-02-24T05:49:24;14.13;;;2.57;;
19869;SDS011;10097;50.862;4.696;2023-02-24T05:51:58;17.67;;;3.30;;
19869;SDS011;10097;50.862;4.696;2023-02-24T05:54:30;16.83;;;4.13;;
19869;SDS011;10097;50.862;4.696;2023-02-24T05:57:07;13.03;;;2.50;;
19869;SDS011;10097;50.862;4.696;2023-02-24T05:59:41;14.53;;;2.70;;
19869;SDS011;10097;50.862;4.696;2023-02-24T06:02:09;20.00;;;2.90;;
19869;SDS011;10097;50.862;4.696;2023-02-24T06:04:37;18.23;;;2.77;;
19869;SDS011;10097;50.862;4.696;2023-02-24T06:07:19;20.37;;;3.17;;
19869;SDS011;10097;50.862;4.696;2023-02-24T06:09:49;16.77;;;3.77;;
19869;SDS011;10097;50.862;4.696;2023-02-24T06:12:18;17.43;;;2.90;;
19869;SDS011;10097;50.862;4.696;2023-02-24T06:14:45;17.40;;;2.83;;
19869;SDS011;10097;50.862;4.696;2023-02-24T06:17:11;18.23;;;3.20;;
19869;SDS011;10097;50.862;4.696;2023-02-24T06:19:42;23.43;;;3.13;;
19869;SDS011;10097;50.862;4.696;2023-02-24T06:22:12;16.27;;;2.83;;
19869;SDS011;10097;50.862;4.696;2023-02-24T06:24:39;27.73;;;4.17;;
19869;SDS011;10097;50.862;4.696;2023-02-24T06:27:09;25.17;;;4.13;;
19869;SDS011;10097;50.862;4.696;2023-02-24T06:29:41;16.40;;;2.93;;
19869;SDS011;10097;50.862;4.696;2023-02-24T06:32:08;20.63;;;2.57;;
19869;SDS011;10097;50.862;4.696;2023-02-24T06:34:34;20.97;;;3.53;;
19869;SDS011;10097;50.862;4.696;2023-02-24T06:37:01;15.50;;;3.07;;
19869;SDS011;10097;50.862;4.696;2023-02-24T06:39:29;13.70;;;2.67;;
19869;SDS011;10097;50.862;4.696;2023-02-24T06:41:56;20.13;;;3.90;;
19869;SDS011;10097;50.862;4.696;2023-02-24T06:44:28;17.40;;;3.70;;
19869;SDS011;10097;50.862;4.696;2023-02-24T06:46:54;21.10;;;3.83;;
19869;SDS011;10097;50.862;4.696;2023-02-24T06:49:25;21.57;;;4.40;;
19869;SDS011;10097;50.862;4.696;2023-02-24T06:51:52;25.60;;;3.93;;
19869;SDS011;10097;50.862;4.696;2023-02-24T06:54:21;24.23;;;3.70;;
19869;SDS011;10097;50.862;4.696;2023-02-24T06:56:49;19.70;;;4.20;;
19869;SDS011;10097;50.862;4.696;2023-02-24T06:59:15;19.33;;;3.20;;
19869;SDS011;10097;50.862;4.696;2023-02-24T07:01:48;15.67;;;2.90;;
19869;SDS011;10097;50.862;4.696;2023-02-24T07:04:15;25.57;;;3.10;;
19869;SDS011;10097;50.862;4.696;2023-02-24T07:06:41;14.50;;;3.50;;
19869;SDS011;10097;50.862;4.696;2023-02-24T07:09:10;22.10;;;4.17;;
19869;SDS011;10097;50.862;4.696;2023-02-24T07:11:38;14.20;;;3.63;;
19869;SDS011;10097;50.862;4.696;2023-02-24T07:14:06;16.10;;;3.10;;
19869;SDS011;10097;50.862;4.696;2023-02-24T07:16:34;14.50;;;3.30;;
19869;SDS011;10097;50.862;4.696;2023-02-24T07:19:02;14.27;;;2.97;;
19869;SDS011;10097;50.862;4.696;2023-02-24T07:21:33;14.03;;;2.60;;
19869;SDS011;10097;50.862;4.696;2023-02-24T07:24:08;17.87;;;3.57;;
19869;SDS011;10097;50.862;4.696;2023-02-24T07:26:37;15.17;;;3.57;;
19869;SDS011;10097;50.862;4.696;2023-02-24T07:29:08;21.70;;;4.13;;
19869;SDS011;10097;50.862;4.696;2023-02-24T07:31:35;10.77;;;2.70;;
19869;SDS011;10097;50.862;4.696;2023-02-24T07:34:02;19.47;;;4.40;;
19869;SDS011;10097;50.862;4.696;2023-02-24T07:36:28;26.63;;;7.30;;
19869;SDS011;10097;50.862;4.696;2023-02-24T07:38:56;19.70;;;4.03;;
19869;SDS011;10097;50.862;4.696;2023-02-24T07:41:23;19.13;;;3.50;;
19869;SDS011;10097;50.862;4.696;2023-02-24T07:43:51;22.73;;;4.07;;
19869;SDS011;10097;50.862;4.696;2023-02-24T07:46:20;22.80;;;4.10;;
19869;SDS011;10097;50.862;4.696;2023-02-24T07:48:52;23.53;;;3.37;;
19869;SDS011;10097;50.862;4.696;2023-02-24T07:51:20;22.43;;;3.97;;
19869;SDS011;10097;50.862;4.696;2023-02-24T07:53:48;21.43;;;4.40;;
19869;SDS011;10097;50.862;4.696;2023-02-24T07:56:17;17.13;;;3.60;;
19869;SDS011;10097;50.862;4.696;2023-02-24T07:58:44;18.53;;;3.50;;
19869;SDS011;10097;50.862;4.696;2023-02-24T08:01:15;19.83;;;3.50;;
19869;SDS011;10097;50.862;4.696;2023-02-24T08:03:56;18.13;;;3.33;;
19869;SDS011;10097;50.862;4.696;2023-02-24T08:06:31;23.33;;;3.63;;
19869;SDS011;10097;50.862;4.696;2023-02-24T08:09:06;20.30;;;3.43;;
19869;SDS011;10097;50.862;4.696;2023-02-24T08:11:51;23.70;;;4.00;;
19869;SDS011;10097;50.862;4.696;2023-02-24T08:14:26;20.67;;;3.73;;
19869;SDS011;10097;50.862;4.696;2023-02-24T08:16:57;16.30;;;3.10;;
19869;SDS011;10097;50.862;4.696;2023-02-24T08:19:29;19.03;;;3.90;;
19869;SDS011;10097;50.862;4.696;2023-02-24T08:22:07;13.47;;;3.40;;
19869;SDS011;10097;50.862;4.696;2023-02-24T08:24:53;20.67;;;4.20;;
19869;SDS011;10097;50.862;4.696;2023-02-24T08:27:25;15.40;;;3.83;;
19869;SDS011;10097;50.862;4.696;2023-02-24T08:29:56;19.43;;;3.37;;
19869;SDS011;10097;50.862;4.696;2023-02-24T08:35:02;17.43;;;2.93;;
19869;SDS011;10097;50.862;4.696;2023-02-24T08:37:30;20.33;;;4.47;;
19869;SDS011;10097;50.862;4.696;2023-02-24T08:40:03;16.90;;;3.73;;
19869;SDS011;10097;50.862;4.696;2023-02-24T08:42:53;12.70;;;3.33;;
19869;SDS011;10097;50.862;4.696;2023-02-24T08:45:22;13.87;;;4.10;;
19869;SDS011;10097;50.862;4.696;2023-02-24T08:47:57;17.67;;;3.87;;
19869;SDS011;10097;50.862;4.696;2023-02-24T08:50:42;20.93;;;3.33;;
19869;SDS011;10097;50.862;4.696;2023-02-24T08:53:10;25.33;;;4.27;;
19869;SDS011;10097;50.862;4.696;2023-02-24T08:55:43;17.17;;;3.10;;
19869;SDS011;10097;50.862;4.696;2023-02-24T08:58:09;15.97;;;3.60;;
19869;SDS011;10097;50.862;4.696;2023-02-24T09:00:42;18.07;;;3.53;;
19869;SDS011;10097;50.862;4.696;2023-02-24T09:03:19;20.20;;;3.40;;
19869;SDS011;10097;50.862;4.696;2023-02-24T09:06:00;19.17;;;2.93;;
19869;SDS011;10097;50.862;4.696;2023-02-24T09:08:36;16.60;;;2.93;;
19869;SDS011;10097;50.862;4.696;2023-02-24T09:11:05;16.97;;;3.50;;
19869;SDS011;10097;50.862;4.696;2023-02-24T09:13:35;19.10;;;4.57;;
19869;SDS011;10097;50.862;4.696;2023-02-24T09:16:07;16.30;;;3.20;;
19869;SDS011;10097;50.862;4.696;2023-02-24T09:18:40;17.93;;;3.50;;
19869;SDS011;10097;50.862;4.696;2023-02-24T09:21:13;23.70;;;3.40;;
19869;SDS011;10097;50.862;4.696;2023-02-24T09:23:58;17.93;;;3.20;;
19869;SDS011;10097;50.862;4.696;2023-02-24T09:26:27;20.10;;;3.23;;
19869;SDS011;10097;50.862;4.696;2023-02-24T09:28:57;20.40;;;2.93;;
19869;SDS011;10097;50.862;4.696;2023-02-24T09:31:23;20.33;;;3.47;;
19869;SDS011;10097;50.862;4.696;2023-02-24T09:34:05;13.20;;;2.10;;
19869;SDS011;10097;50.862;4.696;2023-02-24T09:36:34;14.10;;;2.90;;
19869;SDS011;10097;50.862;4.696;2023-02-24T09:39:09;16.37;;;2.00;;
19869;SDS011;10097;50.862;4.696;2023-02-24T09:44:42;14.77;;;2.20;;
19869;SDS011;10097;50.862;4.696;2023-02-24T09:52:44;10.33;;;2.10;;
19869;SDS011;10097;50.862;4.696;2023-02-24T10:00:40;16.43;;;2.00;;
19869;SDS011;10097;50.862;4.696;2023-02-24T10:03:46;9.00;;;1.77;;
19869;SDS011;10097;50.862;4.696;2023-02-24T10:17:40;14.43;;;2.57;;
19869;SDS011;10097;50.862;4.696;2023-02-24T10:20:16;11.37;;;2.00;;
19869;SDS011;10097;50.862;4.696;2023-02-24T10:23:09;15.97;;;2.53;;
19869;SDS011;10097;50.862;4.696;2023-02-24T10:32:24;9.77;;;2.40;;
19869;SDS011;10097;50.862;4.696;2023-02-24T10:34:58;12.33;;;2.43;;
19869;SDS011;10097;50.862;4.696;2023-02-24T10:37:25;12.83;;;2.50;;
19869;SDS011;10097;50.862;4.696;2023-02-24T10:40:11;11.83;;;2.43;;
19869;SDS011;10097;50.862;4.696;2023-02-24T10:42:48;16.80;;;2.63;;
19869;SDS011;10097;50.862;4.696;2023-02-24T10:45:22;14.30;;;2.60;;
19869;SDS011;10097;50.862;4.696;2023-02-24T10:47:53;14.97;;;2.60;;
19869;SDS011;10097;50.862;4.696;2023-02-24T10:50:27;13.23;;;2.53;;
19869;SDS011;10097;50.862;4.696;2023-02-24T10:53:00;15.67;;;3.00;;
19869;SDS011;10097;50.862;4.696;2023-02-24T10:55:31;15.87;;;2.67;;
19869;SDS011;10097;50.862;4.696;2023-02-24T10:58:13;10.93;;;2.43;;
19869;SDS011;10097;50.862;4.696;2023-02-24T11:00:42;9.80;;;2.50;;
19869;SDS011;10097;50.862;4.696;2023-02-24T11:03:30;14.67;;;2.73;;
19869;SDS011;10097;50.862;4.696;2023-02-24T11:09:02;12.60;;;2.47;;
19869;SDS011;10097;50.862;4.696;2023-02-24T11:11:42;12.53;;;2.67;;
19869;SDS011;10097;50.862;4.696;2023-02-24T11:14:27;14.87;;;2.60;;
19869;SDS011;10097;50.862;4.696;2023-02-24T11:17:20;13.23;;;2.40;;
19869;SDS011;10097;50.862;4.696;2023-02-24T11:20:04;12.63;;;2.80;;
19869;SDS011;10097;50.862;4.696;2023-02-24T11:22:48;11.60;;;2.70;;
19869;SDS011;10097;50.862;4.696;2023-02-24T11:25:35;13.00;;;2.40;;
19869;SDS011;10097;50.862;4.696;2023-02-24T11:28:05;13.23;;;2.87;;
19869;SDS011;10097;50.862;4.696;2023-02-24T11:36:04;12.83;;;2.97;;
19869;SDS011;10097;50.862;4.696;2023-02-24T11:41:11;11.53;;;2.43;;
19869;SDS011;10097;50.862;4.696;2023-02-24T11:44:06;12.60;;;2.73;;
19869;SDS011;10097;50.862;4.696;2023-02-24T11:46:38;10.93;;;2.40;;
19869;SDS011;10097;50.862;4.696;2023-02-24T11:49:23;10.50;;;2.70;;
19869;SDS011;10097;50.862;4.696;2023-02-24T11:51:55;10.83;;;2.33;;
19869;SDS011;10097;50.862;4.696;2023-02-24T11:54:22;9.93;;;2.43;;
19869;SDS011;10097;50.862;4.696;2023-02-24T11:56:54;11.93;;;2.80;;
19869;SDS011;10097;50.862;4.696;2023-02-24T12:08:09;14.07;;;2.20;;
19869;SDS011;10097;50.862;4.696;2023-02-24T12:13:31;13.80;;;2.97;;
19869;SDS011;10097;50.862;4.696;2023-02-24T12:16:14;13.57;;;3.10;;
19869;SDS011;10097;50.862;4.696;2023-02-24T12:19:08;12.00;;;2.80;;
19869;SDS011;10097;50.862;4.696;2023-02-24T12:21:52;10.73;;;2.00;;
19869;SDS011;10097;50.862;4.696;2023-02-24T12:24:23;10.10;;;2.53;;
19869;SDS011;10097;50.862;4.696;2023-02-24T12:27:03;10.90;;;2.60;;
19869;SDS011;10097;50.862;4.696;2023-02-24T12:46:19;9.87;;;2.77;;
19869;SDS011;10097;50.862;4.696;2023-02-24T12:59:33;13.83;;;2.70;;
19869;SDS011;10097;50.862;4.696;2023-02-24T13:04:47;13.27;;;2.50;;
19869;SDS011;10097;50.862;4.696;2023-02-24T13:10:08;13.37;;;2.50;;
19869;SDS011;10097;50.862;4.696;2023-02-24T13:12:48;14.53;;;2.90;;
19869;SDS011;10097;50.862;4.696;2023-02-24T13:15:27;16.90;;;3.23;;
19869;SDS011;10097;50.862;4.696;2023-02-24T13:17:57;14.50;;;2.93;;
19869;SDS011;10097;50.862;4.696;2023-02-24T13:20:27;8.90;;;2.53;;
19869;SDS011;10097;50.862;4.696;2023-02-24T13:22:53;12.80;;;3.60;;
19869;SDS011;10097;50.862;4.696;2023-02-24T13:25:21;9.83;;;2.97;;
19869;SDS011;10097;50.862;4.696;2023-02-24T13:27:56;15.37;;;4.10;;
19869;SDS011;10097;50.862;4.696;2023-02-24T13:30:25;15.27;;;3.17;;
19869;SDS011;10097;50.862;4.696;2023-02-24T13:35:35;14.13;;;3.27;;
19869;SDS011;10097;50.862;4.696;2023-02-24T13:38:35;10.90;;;2.97;;
19869;SDS011;10097;50.862;4.696;2023-02-24T13:41:06;10.37;;;3.00;;
19869;SDS011;10097;50.862;4.696;2023-02-24T13:43:33;15.43;;;3.50;;
19869;SDS011;10097;50.862;4.696;2023-02-24T13:46:00;13.17;;;3.43;;
19869;SDS011;10097;50.862;4.696;2023-02-24T13:51:48;14.50;;;3.17;;
19869;SDS011;10097;50.862;4.696;2023-02-24T13:58:32;16.50;;;4.67;;
19869;SDS011;10097;50.862;4.696;2023-02-24T14:03:27;15.83;;;4.30;;
19869;SDS011;10097;50.862;4.696;2023-02-24T14:05:53;17.03;;;4.60;;
19869;SDS011;10097;50.862;4.696;2023-02-24T14:08:24;12.57;;;4.40;;
19869;SDS011;10097;50.862;4.696;2023-02-24T14:11:11;14.03;;;4.00;;
19869;SDS011;10097;50.862;4.696;2023-02-24T14:13:39;16.70;;;4.97;;
19869;SDS011;10097;50.862;4.696;2023-02-24T14:16:19;16.37;;;4.47;;
19869;SDS011;10097;50.862;4.696;2023-02-24T14:18:51;13.77;;;4.37;;
19869;SDS011;10097;50.862;4.696;2023-02-24T14:21:23;14.30;;;4.50;;
19869;SDS011;10097;50.862;4.696;2023-02-24T14:23:58;14.70;;;5.00;;
19869;SDS011;10097;50.862;4.696;2023-02-24T14:26:26;14.60;;;4.70;;
19869;SDS011;10097;50.862;4.696;2023-02-24T14:28:59;19.60;;;5.50;;
19869;SDS011;10097;50.862;4.696;2023-02-24T14:31:25;17.03;;;5.47;;
19869;SDS011;10097;50.862;4.696;2023-02-24T14:33:56;18.30;;;5.83;;
19869;SDS011;10097;50.862;4.696;2023-02-24T14:36:28;21.80;;;6.07;;
19869;SDS011;10097;50.862;4.696;2023-02-24T14:39:07;15.90;;;5.50;;
19869;SDS011;10097;50.862;4.696;2023-02-24T14:41:49;19.27;;;5.67;;
19869;SDS011;10097;50.862;4.696;2023-02-24T14:46:51;15.17;;;6.07;;
19869;SDS011;10097;50.862;4.696;2023-02-24T14:49:20;14.27;;;5.43;;
19869;SDS011;10097;50.862;4.696;2023-02-24T14:51:56;15.10;;;5.70;;
19869;SDS011;10097;50.862;4.696;2023-02-24T14:54:37;16.70;;;5.77;;
19869;SDS011;10097;50.862;4.696;2023-02-24T14:57:16;18.90;;;6.73;;
19869;SDS011;10097;50.862;4.696;2023-02-24T14:59:47;19.90;;;6.40;;
19869;SDS011;10097;50.862;4.696;2023-02-24T15:02:19;20.33;;;6.77;;
19869;SDS011;10097;50.862;4.696;2023-02-24T15:04:48;17.83;;;6.93;;
19869;SDS011;10097;50.862;4.696;2023-02-24T15:07:22;18.00;;;6.87;;
19869;SDS011;10097;50.862;4.696;2023-02-24T15:09:51;22.73;;;8.03;;
19869;SDS011;10097;50.862;4.696;2023-02-24T15:12:28;17.07;;;6.90;;
19869;SDS011;10097;50.862;4.696;2023-02-24T15:15:17;14.70;;;6.50;;
19869;SDS011;10097;50.862;4.696;2023-02-24T15:17:43;22.90;;;7.83;;
19869;SDS011;10097;50.862;4.696;2023-02-24T15:20:25;19.90;;;7.30;;
19869;SDS011;10097;50.862;4.696;2023-02-24T15:22:53;19.07;;;7.30;;
19869;SDS011;10097;50.862;4.696;2023-02-24T15:25:25;20.37;;;8.50;;
19869;SDS011;10097;50.862;4.696;2023-02-24T15:27:56;21.57;;;8.63;;
19869;SDS011;10097;50.862;4.696;2023-02-24T15:35:47;19.87;;;8.30;;
19869;SDS011;10097;50.862;4.696;2023-02-24T15:38:34;20.47;;;9.40;;
19869;SDS011;10097;50.862;4.696;2023-02-24T15:41:03;18.50;;;8.13;;
19869;SDS011;10097;50.862;4.696;2023-02-24T15:43:31;16.77;;;7.40;;
19869;SDS011;10097;50.862;4.696;2023-02-24T15:48:50;16.23;;;8.33;;
19869;SDS011;10097;50.862;4.696;2023-02-24T15:51:25;18.43;;;8.13;;
19869;SDS011;10097;50.862;4.696;2023-02-24T15:53:59;20.90;;;8.20;;
19869;SDS011;10097;50.862;4.696;2023-02-24T15:56:26;20.13;;;9.30;;
19869;SDS011;10097;50.862;4.696;2023-02-24T15:58:53;19.00;;;8.40;;
19869;SDS011;10097;50.862;4.696;2023-02-24T16:01:18;17.27;;;8.67;;
19869;SDS011;10097;50.862;4.696;2023-02-24T16:03:44;20.90;;;8.87;;
19869;SDS011;10097;50.862;4.696;2023-02-24T16:06:18;17.67;;;8.77;;
19869;SDS011;10097;50.862;4.696;2023-02-24T16:08:46;18.83;;;8.73;;
19869;SDS011;10097;50.862;4.696;2023-02-24T16:11:15;21.37;;;8.57;;
19869;SDS011;10097;50.862;4.696;2023-02-24T16:13:43;20.77;;;9.87;;
19869;SDS011;10097;50.862;4.696;2023-02-24T16:16:15;19.43;;;9.33;;
19869;SDS011;10097;50.862;4.696;2023-02-24T16:18:42;19.27;;;10.23;;
19869;SDS011;10097;50.862;4.696;2023-02-24T16:21:08;19.27;;;9.97;;
19869;SDS011;10097;50.862;4.696;2023-02-24T16:23:34;22.60;;;10.47;;
19869;SDS011;10097;50.862;4.696;2023-02-24T16:26:04;21.30;;;9.93;;
19869;SDS011;10097;50.862;4.696;2023-02-24T16:28:36;24.13;;;10.23;;
19869;SDS011;10097;50.862;4.696;2023-02-24T16:31:02;22.27;;;11.23;;
19869;SDS011;10097;50.862;4.696;2023-02-24T16:33:28;20.13;;;10.07;;
19869;SDS011;10097;50.862;4.696;2023-02-24T16:35:54;23.83;;;11.27;;
19869;SDS011;10097;50.862;4.696;2023-02-24T16:38:22;23.60;;;10.63;;
19869;SDS011;10097;50.862;4.696;2023-02-24T16:40:52;22.93;;;10.90;;
19869;SDS011;10097;50.862;4.696;2023-02-24T16:43:19;24.87;;;10.93;;
19869;SDS011;10097;50.862;4.696;2023-02-24T16:45:45;24.77;;;11.00;;
19869;SDS011;10097;50.862;4.696;2023-02-24T16:48:24;25.77;;;10.17;;
19869;SDS011;10097;50.862;4.696;2023-02-24T16:50:51;25.77;;;10.73;;
19869;SDS011;10097;50.862;4.696;2023-02-24T16:53:18;19.27;;;9.97;;
19869;SDS011;10097;50.862;4.696;2023-02-24T16:55:46;24.50;;;11.17;;
19869;SDS011;10097;50.862;4.696;2023-02-24T16:58:13;24.47;;;10.50;;
19869;SDS011;10097;50.862;4.696;2023-02-24T17:00:39;25.10;;;9.13;;
19869;SDS011;10097;50.862;4.696;2023-02-24T17:06:08;21.10;;;9.47;;
19869;SDS011;10097;50.862;4.696;2023-02-24T17:08:34;22.93;;;9.53;;
19869;SDS011;10097;50.862;4.696;2023-02-24T17:10:59;21.17;;;9.00;;
19869;SDS011;10097;50.862;4.696;2023-02-24T17:13:25;22.73;;;9.67;;
19869;SDS011;10097;50.862;4.696;2023-02-24T17:15:51;23.10;;;8.77;;
19869;SDS011;10097;50.862;4.696;2023-02-24T17:18:21;24.37;;;8.30;;
19869;SDS011;10097;50.862;4.696;2023-02-24T17:20:48;22.00;;;7.97;;
19869;SDS011;10097;50.862;4.696;2023-02-24T17:23:14;21.10;;;6.90;;
19869;SDS011;10097;50.862;4.696;2023-02-24T17:25:39;24.93;;;7.27;;
19869;SDS011;10097;50.862;4.696;2023-02-24T17:28:05;21.67;;;6.43;;
19869;SDS011;10097;50.862;4.696;2023-02-24T17:30:32;17.83;;;6.63;;
19869;SDS011;10097;50.862;4.696;2023-02-24T17:32:59;21.43;;;6.40;;